sensor_id;sensor_type;location;lat;lon;timestamp;P1;durP1;ratioP1;P2;durP2;ratioP2
40256;SDS011;25977;45.462;9.210;2023-04-01T00:00:59;4.53;;;4.13;;
40256;SDS011;25977;45.462;9.210;2023-04-01T00:03:26;5.93;;;4.40;;
40256;SDS011;25977;45.462;9.210;2023-04-01T00:05:53;4.50;;;4.10;;
40256;SDS011;25977;45.462;9.210;2023-04-01T00:08:19;6.03;;;5.40;;
40256;SDS011;25977;45.462;9.210;2023-04-01T00:10:45;5.93;;;5.40;;
40256;SDS011;25977;45.462;9.210;2023-04-01T00:13:11;5.90;;;5.32;;
40256;SDS011;25977;45.462;9.210;2023-04-01T00:15:37;5.97;;;4.50;;
40256;SDS011;25977;45.462;9.210;2023-04-01T00:18:02;6.10;;;4.57;;
40256;SDS011;25977;45.462;9.210;2023-04-01T00:20:28;5.68;;;5.05;;
40256;SDS011;25977;45.462;9.210;2023-04-01T00:22:54;8.07;;;5.25;;
40256;SDS011;25977;45.462;9.210;2023-04-01T00:25:21;7.43;;;5.40;;
40256;SDS011;25977;45.462;9.210;2023-04-01T00:27:47;5.22;;;4.22;;
40256;SDS011;25977;45.462;9.210;2023-04-01T00:30:14;5.05;;;4.63;;
40256;SDS011;25977;45.462;9.210;2023-04-01T00:32:40;5.63;;;5.13;;
40256;SDS011;25977;45.462;9.210;2023-04-01T00:35:06;5.10;;;4.68;;
40256;SDS011;25977;45.462;9.210;2023-04-01T00:37:34;4.32;;;3.90;;
40256;SDS011;25977;45.462;9.210;2023-04-01T00:40:03;4.55;;;4.20;;
40256;SDS011;25977;45.462;9.210;2023-04-01T00:42:30;4.20;;;3.88;;
40256;SDS011;25977;45.462;9.210;2023-04-01T00:44:56;5.95;;;5.35;;
40256;SDS011;25977;45.462;9.210;2023-04-01T00:47:22;4.22;;;3.92;;
40256;SDS011;25977;45.462;9.210;2023-04-01T00:49:51;4.65;;;3.92;;
40256;SDS011;25977;45.462;9.210;2023-04-01T00:52:19;5.25;;;4.85;;
40256;SDS011;25977;45.462;9.210;2023-04-01T00:54:49;4.75;;;4.25;;
40256;SDS011;25977;45.462;9.210;2023-04-01T00:57:23;6.65;;;4.38;;
40256;SDS011;25977;45.462;9.210;2023-04-01T00:59:54;7.63;;;5.10;;
40256;SDS011;25977;45.462;9.210;2023-04-01T01:02:21;4.10;;;3.70;;
40256;SDS011;25977;45.462;9.210;2023-04-01T01:04:47;5.60;;;4.88;;
40256;SDS011;25977;45.462;9.210;2023-04-01T01:34:31;7.53;;;4.57;;
40256;SDS011;25977;45.462;9.210;2023-04-01T01:37:19;10.05;;;4.50;;
40256;SDS011;25977;45.462;9.210;2023-04-01T01:39:49;4.07;;;3.70;;
40256;SDS011;25977;45.462;9.210;2023-04-01T01:42:19;8.17;;;4.90;;
40256;SDS011;25977;45.462;9.210;2023-04-01T01:44:47;4.38;;;4.07;;
40256;SDS011;25977;45.462;9.210;2023-04-01T01:47:15;6.65;;;4.55;;
40256;SDS011;25977;45.462;9.210;2023-04-01T01:49:43;4.60;;;4.07;;
40256;SDS011;25977;45.462;9.210;2023-04-01T01:52:10;4.53;;;4.05;;
40256;SDS011;25977;45.462;9.210;2023-04-01T01:54:46;4.22;;;3.88;;
40256;SDS011;25977;45.462;9.210;2023-04-01T01:57:19;4.07;;;3.78;;
40256;SDS011;25977;45.462;9.210;2023-04-01T01:59:51;3.80;;;3.42;;
40256;SDS011;25977;45.462;9.210;2023-04-01T02:02:24;3.88;;;3.58;;
40256;SDS011;25977;45.462;9.210;2023-04-01T02:04:51;3.30;;;3.10;;
40256;SDS011;25977;45.462;9.210;2023-04-01T02:07:36;6.40;;;3.67;;
40256;SDS011;25977;45.462;9.210;2023-04-01T02:10:05;3.55;;;3.13;;
40256;SDS011;25977;45.462;9.210;2023-04-01T02:12:31;4.18;;;3.80;;
40256;SDS011;25977;45.462;9.210;2023-04-01T02:15:04;4.88;;;2.95;;
40256;SDS011;25977;45.462;9.210;2023-04-01T02:17:34;3.58;;;3.28;;
40256;SDS011;25977;45.462;9.210;2023-04-01T02:20:09;3.97;;;3.63;;
40256;SDS011;25977;45.462;9.210;2023-04-01T02:22:37;3.78;;;3.50;;
40256;SDS011;25977;45.462;9.210;2023-04-01T02:25:08;3.78;;;3.25;;
40256;SDS011;25977;45.462;9.210;2023-04-01T02:27:38;2.78;;;2.58;;
40256;SDS011;25977;45.462;9.210;2023-04-01T02:30:05;3.50;;;3.20;;
40256;SDS011;25977;45.462;9.210;2023-04-01T02:32:32;4.32;;;3.92;;
40256;SDS011;25977;45.462;9.210;2023-04-01T02:35:02;3.13;;;2.83;;
40256;SDS011;25977;45.462;9.210;2023-04-01T02:37:33;3.45;;;3.15;;
40256;SDS011;25977;45.462;9.210;2023-04-01T02:40:00;5.65;;;3.53;;
40256;SDS011;25977;45.462;9.210;2023-04-01T02:42:27;3.25;;;2.88;;
40256;SDS011;25977;45.462;9.210;2023-04-01T02:44:52;3.40;;;3.20;;
40256;SDS011;25977;45.462;9.210;2023-04-01T02:47:18;3.42;;;3.13;;
40256;SDS011;25977;45.462;9.210;2023-04-01T02:49:44;9.35;;;3.33;;
40256;SDS011;25977;45.462;9.210;2023-04-01T02:52:11;3.20;;;3.00;;
40256;SDS011;25977;45.462;9.210;2023-04-01T02:54:36;4.13;;;3.75;;
40256;SDS011;25977;45.462;9.210;2023-04-01T02:57:03;3.45;;;3.15;;
40256;SDS011;25977;45.462;9.210;2023-04-01T02:59:29;3.78;;;3.47;;
40256;SDS011;25977;45.462;9.210;2023-04-01T03:01:55;5.05;;;4.18;;
40256;SDS011;25977;45.462;9.210;2023-04-01T03:04:21;4.97;;;3.72;;
40256;SDS011;25977;45.462;9.210;2023-04-01T03:06:47;5.40;;;4.90;;
40256;SDS011;25977;45.462;9.210;2023-04-01T03:09:12;5.85;;;5.05;;
40256;SDS011;25977;45.462;9.210;2023-04-01T03:11:39;4.47;;;3.80;;
40256;SDS011;25977;45.462;9.210;2023-04-01T03:14:06;6.95;;;3.97;;
40256;SDS011;25977;45.462;9.210;2023-04-01T03:16:32;4.53;;;3.65;;
40256;SDS011;25977;45.462;9.210;2023-04-01T03:18:58;4.82;;;3.63;;
40256;SDS011;25977;45.462;9.210;2023-04-01T03:21:25;4.03;;;3.70;;
40256;SDS011;25977;45.462;9.210;2023-04-01T03:23:51;4.38;;;3.58;;
40256;SDS011;25977;45.462;9.210;2023-04-01T03:26:18;4.97;;;2.88;;
40256;SDS011;25977;45.462;9.210;2023-04-01T03:28:44;3.45;;;3.20;;
40256;SDS011;25977;45.462;9.210;2023-04-01T03:31:10;5.38;;;3.10;;
40256;SDS011;25977;45.462;9.210;2023-04-01T03:33:42;5.25;;;3.42;;
40256;SDS011;25977;45.462;9.210;2023-04-01T03:36:08;4.85;;;4.35;;
40256;SDS011;25977;45.462;9.210;2023-04-01T03:38:34;4.00;;;3.53;;
40256;SDS011;25977;45.462;9.210;2023-04-01T03:41:00;3.72;;;3.42;;
40256;SDS011;25977;45.462;9.210;2023-04-01T03:43:26;2.67;;;2.47;;
40256;SDS011;25977;45.462;9.210;2023-04-01T03:45:52;2.72;;;2.53;;
40256;SDS011;25977;45.462;9.210;2023-04-01T03:48:19;4.32;;;3.28;;
40256;SDS011;25977;45.462;9.210;2023-04-01T03:50:46;3.20;;;3.00;;
40256;SDS011;25977;45.462;9.210;2023-04-01T03:53:12;4.13;;;3.40;;
40256;SDS011;25977;45.462;9.210;2023-04-01T03:55:40;3.38;;;2.92;;
40256;SDS011;25977;45.462;9.210;2023-04-01T03:58:06;5.82;;;2.92;;
40256;SDS011;25977;45.462;9.210;2023-04-01T04:00:34;3.53;;;2.22;;
40256;SDS011;25977;45.462;9.210;2023-04-01T04:03:00;6.55;;;2.42;;
40256;SDS011;25977;45.462;9.210;2023-04-01T04:05:30;3.03;;;2.75;;
40256;SDS011;25977;45.462;9.210;2023-04-01T04:07:56;4.97;;;3.45;;
40256;SDS011;25977;45.462;9.210;2023-04-01T04:10:22;2.95;;;2.75;;
40256;SDS011;25977;45.462;9.210;2023-04-01T04:12:49;3.22;;;2.92;;
40256;SDS011;25977;45.462;9.210;2023-04-01T04:15:17;4.32;;;2.40;;
40256;SDS011;25977;45.462;9.210;2023-04-01T04:17:44;3.10;;;2.90;;
40256;SDS011;25977;45.462;9.210;2023-04-01T04:20:10;7.10;;;2.72;;
40256;SDS011;25977;45.462;9.210;2023-04-01T04:22:36;3.03;;;2.75;;
40256;SDS011;25977;45.462;9.210;2023-04-01T04:25:04;4.75;;;2.50;;
40256;SDS011;25977;45.462;9.210;2023-04-01T04:27:30;3.38;;;2.75;;
40256;SDS011;25977;45.462;9.210;2023-04-01T04:30:05;2.58;;;2.38;;
40256;SDS011;25977;45.462;9.210;2023-04-01T04:32:32;4.82;;;2.50;;
40256;SDS011;25977;45.462;9.210;2023-04-01T04:34:58;2.47;;;2.08;;
40256;SDS011;25977;45.462;9.210;2023-04-01T04:37:24;2.25;;;1.90;;
40256;SDS011;25977;45.462;9.210;2023-04-01T04:39:51;4.93;;;2.45;;
40256;SDS011;25977;45.462;9.210;2023-04-01T04:42:17;3.20;;;2.30;;
40256;SDS011;25977;45.462;9.210;2023-04-01T04:44:43;2.03;;;1.80;;
40256;SDS011;25977;45.462;9.210;2023-04-01T04:47:09;3.53;;;2.15;;
40256;SDS011;25977;45.462;9.210;2023-04-01T04:49:35;2.30;;;1.92;;
40256;SDS011;25977;45.462;9.210;2023-04-01T04:52:05;6.53;;;2.10;;
40256;SDS011;25977;45.462;9.210;2023-04-01T04:54:31;3.10;;;1.80;;
40256;SDS011;25977;45.462;9.210;2023-04-01T04:56:58;1.58;;;1.48;;
40256;SDS011;25977;45.462;9.210;2023-04-01T04:59:26;1.73;;;1.63;;
40256;SDS011;25977;45.462;9.210;2023-04-01T05:02:03;2.40;;;1.73;;
40256;SDS011;25977;45.462;9.210;2023-04-01T05:04:29;2.42;;;1.55;;
40256;SDS011;25977;45.462;9.210;2023-04-01T05:06:58;1.70;;;1.60;;
40256;SDS011;25977;45.462;9.210;2023-04-01T05:09:24;3.13;;;2.33;;
40256;SDS011;25977;45.462;9.210;2023-04-01T05:11:51;12.05;;;2.00;;
40256;SDS011;25977;45.462;9.210;2023-04-01T05:14:18;2.05;;;1.42;;
40256;SDS011;25977;45.462;9.210;2023-04-01T05:16:53;2.45;;;1.33;;
40256;SDS011;25977;45.462;9.210;2023-04-01T05:19:19;3.38;;;1.50;;
40256;SDS011;25977;45.462;9.210;2023-04-01T05:21:45;1.92;;;1.38;;
40256;SDS011;25977;45.462;9.210;2023-04-01T05:24:12;2.75;;;1.67;;
40256;SDS011;25977;45.462;9.210;2023-04-01T05:26:38;2.50;;;1.80;;
40256;SDS011;25977;45.462;9.210;2023-04-01T05:29:04;3.55;;;1.45;;
40256;SDS011;25977;45.462;9.210;2023-04-01T05:31:31;3.28;;;1.60;;
40256;SDS011;25977;45.462;9.210;2023-04-01T05:33:57;5.32;;;1.70;;
40256;SDS011;25977;45.462;9.210;2023-04-01T05:36:23;1.80;;;1.70;;
40256;SDS011;25977;45.462;9.210;2023-04-01T05:38:49;3.42;;;1.50;;
40256;SDS011;25977;45.462;9.210;2023-04-01T05:41:17;1.80;;;1.60;;
40256;SDS011;25977;45.462;9.210;2023-04-01T05:43:44;5.20;;;2.15;;
40256;SDS011;25977;45.462;9.210;2023-04-01T05:46:29;3.25;;;1.50;;
40256;SDS011;25977;45.462;9.210;2023-04-01T05:49:08;4.57;;;2.75;;
40256;SDS011;25977;45.462;9.210;2023-04-01T05:51:34;2.10;;;1.63;;
40256;SDS011;25977;45.462;9.210;2023-04-01T05:54:00;2.45;;;1.88;;
40256;SDS011;25977;45.462;9.210;2023-04-01T05:56:26;1.80;;;1.70;;
40256;SDS011;25977;45.462;9.210;2023-04-01T05:58:53;4.75;;;1.92;;
40256;SDS011;25977;45.462;9.210;2023-04-01T06:01:21;3.45;;;1.73;;
40256;SDS011;25977;45.462;9.210;2023-04-01T06:03:47;3.10;;;1.83;;
40256;SDS011;25977;45.462;9.210;2023-04-01T06:08:56;4.82;;;1.77;;
40256;SDS011;25977;45.462;9.210;2023-04-01T06:25:31;4.63;;;1.63;;
40256;SDS011;25977;45.462;9.210;2023-04-01T06:31:03;1.83;;;1.52;;
40256;SDS011;25977;45.462;9.210;2023-04-01T06:39:09;1.77;;;1.23;;
40256;SDS011;25977;45.462;9.210;2023-04-01T06:41:50;1.75;;;1.52;;
40256;SDS011;25977;45.462;9.210;2023-04-01T06:50:55;1.75;;;1.52;;
40256;SDS011;25977;45.462;9.210;2023-04-01T06:54:06;7.88;;;1.90;;
40256;SDS011;25977;45.462;9.210;2023-04-01T06:59:27;1.60;;;1.48;;
40256;SDS011;25977;45.462;9.210;2023-04-01T07:02:03;7.20;;;1.60;;
40256;SDS011;25977;45.462;9.210;2023-04-01T07:04:40;1.60;;;1.50;;
40256;SDS011;25977;45.462;9.210;2023-04-01T07:07:24;1.85;;;1.50;;
40256;SDS011;25977;45.462;9.210;2023-04-01T07:10:02;3.28;;;2.10;;
40256;SDS011;25977;45.462;9.210;2023-04-01T07:15:39;2.42;;;1.98;;
40256;SDS011;25977;45.462;9.210;2023-04-01T07:18:19;4.28;;;1.50;;
40256;SDS011;25977;45.462;9.210;2023-04-01T07:20:52;1.83;;;1.73;;
40256;SDS011;25977;45.462;9.210;2023-04-01T07:23:21;2.90;;;1.27;;
40256;SDS011;25977;45.462;9.210;2023-04-01T07:26:24;5.28;;;1.98;;
40256;SDS011;25977;45.462;9.210;2023-04-01T07:29:25;5.07;;;2.05;;
40256;SDS011;25977;45.462;9.210;2023-04-01T07:40:28;2.72;;;1.73;;
40256;SDS011;25977;45.462;9.210;2023-04-01T07:48:58;3.63;;;2.28;;
40256;SDS011;25977;45.462;9.210;2023-04-01T07:54:08;4.32;;;1.30;;
40256;SDS011;25977;45.462;9.210;2023-04-01T08:06:10;4.70;;;2.22;;
40256;SDS011;25977;45.462;9.210;2023-04-01T08:08:49;2.70;;;1.35;;
40256;SDS011;25977;45.462;9.210;2023-04-01T08:12:02;4.07;;;1.10;;
40256;SDS011;25977;45.462;9.210;2023-04-01T08:20:45;3.22;;;1.30;;
40256;SDS011;25977;45.462;9.210;2023-04-01T08:23:31;2.95;;;1.35;;
40256;SDS011;25977;45.462;9.210;2023-04-01T08:26:06;3.30;;;1.40;;
40256;SDS011;25977;45.462;9.210;2023-04-01T08:32:08;2.38;;;1.60;;
40256;SDS011;25977;45.462;9.210;2023-04-01T08:34:36;1.42;;;1.30;;
40256;SDS011;25977;45.462;9.210;2023-04-01T08:37:08;2.75;;;1.48;;
40256;SDS011;25977;45.462;9.210;2023-04-01T08:39:44;1.30;;;1.20;;
40256;SDS011;25977;45.462;9.210;2023-04-01T08:42:18;2.22;;;1.52;;
40256;SDS011;25977;45.462;9.210;2023-04-01T08:47:55;2.50;;;1.35;;
40256;SDS011;25977;45.462;9.210;2023-04-01T09:01:48;2.58;;;1.23;;
40256;SDS011;25977;45.462;9.210;2023-04-01T09:10:23;5.70;;;1.73;;
40256;SDS011;25977;45.462;9.210;2023-04-01T09:13:43;1.92;;;1.77;;
40256;SDS011;25977;45.462;9.210;2023-04-01T09:19:07;2.35;;;1.40;;
40256;SDS011;25977;45.462;9.210;2023-04-01T09:37:39;2.45;;;1.65;;
40256;SDS011;25977;45.462;9.210;2023-04-01T09:43:16;5.07;;;1.63;;
40256;SDS011;25977;45.462;9.210;2023-04-01T09:46:09;1.30;;;1.30;;
40256;SDS011;25977;45.462;9.210;2023-04-01T09:49:04;5.15;;;2.10;;
40256;SDS011;25977;45.462;9.210;2023-04-01T09:51:53;1.80;;;1.45;;
40256;SDS011;25977;45.462;9.210;2023-04-01T10:29:24;1.65;;;1.55;;
40256;SDS011;25977;45.462;9.210;2023-04-01T10:37:39;1.08;;;1.08;;
40256;SDS011;25977;45.462;9.210;2023-04-01T11:33:36;1.10;;;0.30;;
40256;SDS011;25977;45.462;9.210;2023-04-01T11:39:19;0.60;;;0.60;;
40256;SDS011;25977;45.462;9.210;2023-04-01T11:49:20;0.95;;;0.45;;
40256;SDS011;25977;45.462;9.210;2023-04-01T11:52:05;0.60;;;0.60;;
40256;SDS011;25977;45.462;9.210;2023-04-01T11:57:43;0.40;;;0.40;;
40256;SDS011;25977;45.462;9.210;2023-04-01T12:09:31;0.50;;;0.30;;
40256;SDS011;25977;45.462;9.210;2023-04-01T12:14:31;0.30;;;0.30;;
40256;SDS011;25977;45.462;9.210;2023-04-01T12:22:46;0.68;;;0.32;;
40256;SDS011;25977;45.462;9.210;2023-04-01T12:31:34;0.10;;;0.10;;
40256;SDS011;25977;45.462;9.210;2023-04-01T12:39:51;0.22;;;0.20;;
40256;SDS011;25977;45.462;9.210;2023-04-01T12:50:39;0.52;;;0.47;;
40256;SDS011;25977;45.462;9.210;2023-04-01T12:53:18;0.10;;;0.10;;
40256;SDS011;25977;45.462;9.210;2023-04-01T12:55:48;0.10;;;0.10;;
40256;SDS011;25977;45.462;9.210;2023-04-01T13:09:52;1.75;;;0.10;;
40256;SDS011;25977;45.462;9.210;2023-04-01T13:24:40;0.35;;;0.10;;
40256;SDS011;25977;45.462;9.210;2023-04-01T13:29:40;3.30;;;0.63;;
40256;SDS011;25977;45.462;9.210;2023-04-01T13:48:27;0.10;;;0.10;;
40256;SDS011;25977;45.462;9.210;2023-04-01T13:51:20;0.20;;;0.20;;
40256;SDS011;25977;45.462;9.210;2023-04-01T13:56:47;0.10;;;0.10;;
40256;SDS011;25977;45.462;9.210;2023-04-01T14:08:01;1.10;;;0.10;;
40256;SDS011;25977;45.462;9.210;2023-04-01T14:10:40;0.45;;;0.30;;
40256;SDS011;25977;45.462;9.210;2023-04-01T14:13:25;1.27;;;0.38;;
40256;SDS011;25977;45.462;9.210;2023-04-01T14:24:08;0.40;;;0.20;;
40256;SDS011;25977;45.462;9.210;2023-04-01T14:33:01;0.10;;;0.10;;
40256;SDS011;25977;45.462;9.210;2023-04-01T14:35:43;0.32;;;0.13;;
40256;SDS011;25977;45.462;9.210;2023-04-01T14:38:28;0.20;;;0.13;;
40256;SDS011;25977;45.462;9.210;2023-04-01T14:40:58;0.40;;;0.30;;
40256;SDS011;25977;45.462;9.210;2023-04-01T14:52:13;0.20;;;0.20;;
40256;SDS011;25977;45.462;9.210;2023-04-01T14:54:46;0.75;;;0.13;;
40256;SDS011;25977;45.462;9.210;2023-04-01T14:59:54;0.40;;;0.20;;
40256;SDS011;25977;45.462;9.210;2023-04-01T15:03:19;0.25;;;0.25;;
40256;SDS011;25977;45.462;9.210;2023-04-01T15:21:43;0.17;;;0.17;;
40256;SDS011;25977;45.462;9.210;2023-04-01T15:27:08;0.35;;;0.35;;
40256;SDS011;25977;45.462;9.210;2023-04-01T15:29:42;0.10;;;0.10;;
40256;SDS011;25977;45.462;9.210;2023-04-01T15:36:10;0.30;;;0.30;;
40256;SDS011;25977;45.462;9.210;2023-04-01T15:39:13;0.43;;;0.35;;
40256;SDS011;25977;45.462;9.210;2023-04-01T16:00:53;0.30;;;0.30;;
40256;SDS011;25977;45.462;9.210;2023-04-01T16:03:33;0.20;;;0.10;;
40256;SDS011;25977;45.462;9.210;2023-04-01T16:09:06;0.10;;;0.10;;
40256;SDS011;25977;45.462;9.210;2023-04-01T16:23:04;0.80;;;0.30;;
40256;SDS011;25977;45.462;9.210;2023-04-01T16:28:44;0.93;;;0.25;;
40256;SDS011;25977;45.462;9.210;2023-04-01T16:34:10;0.22;;;0.20;;
40256;SDS011;25977;45.462;9.210;2023-04-01T16:44:31;1.20;;;0.20;;
40256;SDS011;25977;45.462;9.210;2023-04-01T16:47:21;0.22;;;0.20;;
40256;SDS011;25977;45.462;9.210;2023-04-01T16:49:54;1.00;;;0.47;;
40256;SDS011;25977;45.462;9.210;2023-04-01T16:52:42;0.50;;;0.47;;
40256;SDS011;25977;45.462;9.210;2023-04-01T16:55:32;0.50;;;0.50;;
40256;SDS011;25977;45.462;9.210;2023-04-01T17:17:42;0.93;;;0.93;;
40256;SDS011;25977;45.462;9.210;2023-04-01T17:23:12;0.52;;;0.52;;
40256;SDS011;25977;45.462;9.210;2023-04-01T17:26:03;1.00;;;0.40;;
40256;SDS011;25977;45.462;9.210;2023-04-01T17:28:57;0.25;;;0.25;;
40256;SDS011;25977;45.462;9.210;2023-04-01T17:34:55;1.45;;;0.47;;
40256;SDS011;25977;45.462;9.210;2023-04-01T17:38:13;0.40;;;0.40;;
40256;SDS011;25977;45.462;9.210;2023-04-01T17:46:05;0.90;;;0.80;;
40256;SDS011;25977;45.462;9.210;2023-04-01T17:48:49;2.35;;;0.80;;
40256;SDS011;25977;45.462;9.210;2023-04-01T17:51:46;1.35;;;0.80;;
40256;SDS011;25977;45.462;9.210;2023-04-01T17:57:13;0.90;;;0.90;;
40256;SDS011;25977;45.462;9.210;2023-04-01T18:05:43;0.98;;;0.85;;
40256;SDS011;25977;45.462;9.210;2023-04-01T18:08:37;2.45;;;0.80;;
40256;SDS011;25977;45.462;9.210;2023-04-01T18:17:27;3.47;;;0.70;;
40256;SDS011;25977;45.462;9.210;2023-04-01T18:22:59;3.08;;;1.13;;
40256;SDS011;25977;45.462;9.210;2023-04-01T18:25:31;1.55;;;0.90;;
40256;SDS011;25977;45.462;9.210;2023-04-01T18:38:26;1.40;;;1.17;;
40256;SDS011;25977;45.462;9.210;2023-04-01T18:46:31;1.08;;;1.02;;
40256;SDS011;25977;45.462;9.210;2023-04-01T18:49:21;4.60;;;1.05;;
40256;SDS011;25977;45.462;9.210;2023-04-01T18:52:15;1.40;;;1.30;;
40256;SDS011;25977;45.462;9.210;2023-04-01T18:55:14;3.70;;;0.85;;
40256;SDS011;25977;45.462;9.210;2023-04-01T18:57:49;1.33;;;1.15;;
40256;SDS011;25977;45.462;9.210;2023-04-01T19:05:47;1.42;;;1.33;;
40256;SDS011;25977;45.462;9.210;2023-04-01T19:16:26;3.47;;;1.52;;
40256;SDS011;25977;45.462;9.210;2023-04-01T19:22:26;1.70;;;1.38;;
40256;SDS011;25977;45.462;9.210;2023-04-01T19:27:48;3.72;;;1.70;;
40256;SDS011;25977;45.462;9.210;2023-04-01T19:30:19;2.13;;;1.90;;
40256;SDS011;25977;45.462;9.210;2023-04-01T19:35:21;3.08;;;2.08;;
40256;SDS011;25977;45.462;9.210;2023-04-01T19:40:37;3.75;;;2.08;;
40256;SDS011;25977;45.462;9.210;2023-04-01T19:54:30;10.13;;;4.45;;
40256;SDS011;25977;45.462;9.210;2023-04-01T19:57:34;10.07;;;3.75;;
40256;SDS011;25977;45.462;9.210;2023-04-01T20:03:00;5.60;;;3.28;;
40256;SDS011;25977;45.462;9.210;2023-04-01T20:05:31;8.23;;;4.20;;
40256;SDS011;25977;45.462;9.210;2023-04-01T20:08:28;5.65;;;3.47;;
40256;SDS011;25977;45.462;9.210;2023-04-01T20:13:47;5.88;;;3.53;;
40256;SDS011;25977;45.462;9.210;2023-04-01T20:20:02;11.18;;;3.67;;
40256;SDS011;25977;45.462;9.210;2023-04-01T20:24:57;2.88;;;2.58;;
40256;SDS011;25977;45.462;9.210;2023-04-01T20:27:33;8.23;;;3.17;;
40256;SDS011;25977;45.462;9.210;2023-04-01T20:35:39;4.82;;;2.38;;
40256;SDS011;25977;45.462;9.210;2023-04-01T20:41:22;1.88;;;1.77;;
40256;SDS011;25977;45.462;9.210;2023-04-01T20:44:13;1.55;;;1.45;;
40256;SDS011;25977;45.462;9.210;2023-04-01T20:47:00;0.60;;;0.60;;
40256;SDS011;25977;45.462;9.210;2023-04-01T20:49:51;2.42;;;1.65;;
40256;SDS011;25977;45.462;9.210;2023-04-01T20:52:42;3.72;;;2.28;;
40256;SDS011;25977;45.462;9.210;2023-04-01T20:58:16;2.88;;;1.73;;
40256;SDS011;25977;45.462;9.210;2023-04-01T21:09:33;2.10;;;1.90;;
40256;SDS011;25977;45.462;9.210;2023-04-01T21:17:41;6.85;;;2.83;;
40256;SDS011;25977;45.462;9.210;2023-04-01T21:26:39;2.05;;;1.40;;
40256;SDS011;25977;45.462;9.210;2023-04-01T21:39:55;2.30;;;1.17;;
40256;SDS011;25977;45.462;9.210;2023-04-01T21:56:55;1.45;;;1.35;;
40256;SDS011;25977;45.462;9.210;2023-04-01T21:59:50;0.80;;;0.80;;
40256;SDS011;25977;45.462;9.210;2023-04-01T22:11:04;3.08;;;1.70;;
40256;SDS011;25977;45.462;9.210;2023-04-01T22:13:46;1.23;;;0.77;;
40256;SDS011;25977;45.462;9.210;2023-04-01T22:18:54;1.27;;;1.10;;
40256;SDS011;25977;45.462;9.210;2023-04-01T22:30:23;0.98;;;0.77;;
40256;SDS011;25977;45.462;9.210;2023-04-01T22:41:01;1.13;;;0.80;;
40256;SDS011;25977;45.462;9.210;2023-04-01T22:43:44;1.20;;;0.98;;
40256;SDS011;25977;45.462;9.210;2023-04-01T22:46:26;2.05;;;1.30;;
40256;SDS011;25977;45.462;9.210;2023-04-01T22:52:02;1.05;;;0.80;;
40256;SDS011;25977;45.462;9.210;2023-04-01T22:54:43;1.95;;;0.80;;
40256;SDS011;25977;45.462;9.210;2023-04-01T22:57:18;1.23;;;0.80;;
40256;SDS011;25977;45.462;9.210;2023-04-01T23:00:05;1.15;;;1.13;;
40256;SDS011;25977;45.462;9.210;2023-04-01T23:02:42;1.05;;;0.80;;
40256;SDS011;25977;45.462;9.210;2023-04-01T23:05:13;2.30;;;0.82;;
40256;SDS011;25977;45.462;9.210;2023-04-01T23:07:56;1.65;;;1.00;;
40256;SDS011;25977;45.462;9.210;2023-04-01T23:10:30;1.45;;;1.10;;
40256;SDS011;25977;45.462;9.210;2023-04-01T23:13:19;2.40;;;1.27;;
40256;SDS011;25977;45.462;9.210;2023-04-01T23:15:52;1.98;;;0.70;;
40256;SDS011;25977;45.462;9.210;2023-04-01T23:18:35;1.50;;;0.98;;
40256;SDS011;25977;45.462;9.210;2023-04-01T23:21:14;1.98;;;1.05;;
40256;SDS011;25977;45.462;9.210;2023-04-01T23:26:33;0.77;;;0.75;;
40256;SDS011;25977;45.462;9.210;2023-04-01T23:29:09;0.93;;;0.90;;
40256;SDS011;25977;45.462;9.210;2023-04-01T23:31:42;0.75;;;0.70;;
40256;SDS011;25977;45.462;9.210;2023-04-01T23:36:43;2.45;;;1.55;;
40256;SDS011;25977;45.462;9.210;2023-04-01T23:42:06;3.87;;;1.43;;
40256;SDS011;25977;45.462;9.210;2023-04-01T23:44:55;2.33;;;1.67;;
40256;SDS011;25977;45.462;9.210;2023-04-01T23:47:29;2.78;;;1.40;;
40256;SDS011;25977;45.462;9.210;2023-04-01T23:50:13;3.05;;;1.58;;
40256;SDS011;25977;45.462;9.210;2023-04-01T23:52:43;2.95;;;1.65;;
40256;SDS011;25977;45.462;9.210;2023-04-01T23:55:30;1.63;;;1.30;;
